Time;durP1;ratioP1;P1;durP2;ratioP2;P2;SDS_P1;SDS_P2;PMS_P1;PMS_P2;Temp;Humidity;BMP_temperature;BMP_pressure;BME280_temperature;BME280_humidity;BME280_pressure;Samples;Min_cycle;Max_cycle;Signal;HPM_P1;HPM_P2
2022/04/30 00:01:50;;;;;;;7.67;6.90;;;;;;;10.79;68.54;96107.53;4960623;28;20186;-77
2022/04/30 00:04:16;;;;;;;9.33;7.60;;;;;;;10.85;68.80;96111.34;4977036;28;20684;-77
2022/04/30 00:06:42;;;;;;;10.63;8.60;;;;;;;10.79;70.43;96104.94;4976422;28;20188;-77
2022/04/30 00:09:07;;;;;;;10.03;9.10;;;;;;;10.70;71.38;96109.16;4976969;28;20250;-78
2022/04/30 00:11:32;;;;;;;12.67;9.57;;;;;;;10.63;71.88;96117.63;4960186;28;20234;-77
2022/04/30 00:13:58;;;;;;;9.97;8.63;;;;;;;10.56;72.46;96106.94;4992863;28;20188;-78
2022/04/30 00:16:23;;;;;;;12.00;9.63;;;;;;;10.49;72.59;96109.25;4994352;28;20179;-77
2022/04/30 00:18:49;;;;;;;15.00;11.50;;;;;;;10.33;74.82;96116.69;4992287;28;20208;-77
2022/04/30 00:21:14;;;;;;;13.20;11.83;;;;;;;10.35;76.08;96114.00;4992240;28;20176;-78
2022/04/30 00:23:39;;;;;;;17.17;13.63;;;;;;;10.31;76.97;96121.22;4976600;28;20191;-77
2022/04/30 00:26:05;;;;;;;16.70;13.43;;;;;;;10.35;77.28;96109.63;4976211;28;20554;-77
2022/04/30 00:28:30;;;;;;;13.50;12.07;;;;;;;10.29;77.26;96110.16;4992861;28;20664;-76
2022/04/30 00:30:56;;;;;;;15.73;13.00;;;;;;;10.17;78.24;96111.19;4992569;28;20195;-77
2022/04/30 00:33:22;;;;;;;15.87;12.93;;;;;;;10.19;78.84;96109.28;4973936;28;20222;-78
2022/04/30 00:35:48;;;;;;;19.93;14.43;;;;;;;10.23;79.24;96110.66;4998179;28;20401;-77
2022/04/30 00:38:15;;;;;;;17.40;14.20;;;;;;;10.19;79.72;96102.31;4999265;28;20220;-77
2022/04/30 00:40:42;;;;;;;19.40;15.43;;;;;;;10.16;81.07;96104.34;4983985;28;20234;-76
2022/04/30 00:43:07;;;;;;;20.83;15.37;;;;;;;10.06;81.60;96106.06;4989234;28;20200;-78
2022/04/30 00:45:32;;;;;;;22.10;14.90;;;;;;;10.05;82.56;96110.44;4996513;28;20234;-77
2022/04/30 00:47:58;;;;;;;24.70;16.43;;;;;;;10.06;82.89;96111.25;4977721;28;20207;-78
2022/04/30 00:50:28;;;;;;;24.03;16.23;;;;;;;10.02;83.54;96108.09;4977740;28;20199;-78
2022/04/30 00:52:56;;;;;;;23.67;16.37;;;;;;;9.96;84.23;96100.84;4977022;28;20210;-78
2022/04/30 00:55:22;;;;;;;27.13;17.43;;;;;;;9.99;84.59;96102.38;4977544;28;20180;-78
2022/04/30 00:57:50;;;;;;;23.70;16.03;;;;;;;9.93;85.03;96101.09;4977246;28;20175;-77
2022/04/30 01:00:15;;;;;;;28.47;18.17;;;;;;;9.91;85.38;96101.25;4992780;28;20171;-78
2022/04/30 01:02:40;;;;;;;23.23;16.77;;;;;;;9.86;86.11;96098.19;4975385;28;20207;-77
2022/04/30 01:05:06;;;;;;;24.73;17.40;;;;;;;9.88;86.55;96101.47;4992207;28;20179;-77
2022/04/30 01:07:32;;;;;;;21.23;16.23;;;;;;;9.84;87.04;96094.94;4975533;28;20203;-77
2022/04/30 01:09:58;;;;;;;20.23;15.77;;;;;;;9.81;87.31;96086.59;4975975;28;20231;-77
2022/04/30 01:12:23;;;;;;;19.60;17.23;;;;;;;9.84;87.21;96092.34;4975413;28;20790;-77
2022/04/30 01:14:52;;;;;;;24.43;17.60;;;;;;;9.86;87.78;96084.41;4978182;28;20544;-77
2022/04/30 01:17:18;;;;;;;22.30;16.80;;;;;;;9.83;87.52;96082.91;4978860;28;20195;-77
2022/04/30 01:19:43;;;;;;;25.07;17.73;;;;;;;9.83;87.87;96082.91;4976376;28;20668;-78
2022/04/30 01:22:26;;;;;;;26.03;17.10;;;;;;;9.80;88.41;96080.56;4991102;28;20175;-78
2022/04/30 01:24:59;;;;;;;26.13;17.63;;;;;;;9.78;88.55;96087.66;4991493;28;20176;-78
2022/04/30 01:27:26;;;;;;;24.70;17.07;;;;;;;9.78;88.39;96079.06;4975316;28;20188;-77
2022/04/30 01:29:52;;;;;;;26.50;17.90;;;;;;;9.69;88.85;96075.47;4974993;28;20191;-78
2022/04/30 01:37:45;;;;;;;22.83;16.10;;;;;;;9.68;88.82;96075.59;4992661;28;20311;-78
2022/04/30 01:40:12;;;;;;;28.20;16.63;;;;;;;9.63;88.95;96076.00;4975233;28;20672;-78
2022/04/30 01:42:40;;;;;;;23.33;16.80;;;;;;;9.60;89.11;96071.88;4991054;28;20661;-77
2022/04/30 01:45:06;;;;;;;20.57;14.83;;;;;;;9.59;88.70;96072.00;4975768;28;20176;-77
2022/04/30 01:47:37;;;;;;;17.70;14.80;;;;;;;9.52;89.13;96070.88;4997089;28;20175;-77
2022/04/30 01:50:03;;;;;;;20.33;14.67;;;;;;;9.57;88.72;96058.34;4979528;28;20654;-79
2022/04/30 01:52:29;;;;;;;21.93;14.10;;;;;;;9.52;88.91;96063.09;4978798;28;20247;-77
2022/04/30 01:54:55;;;;;;;19.97;14.57;;;;;;;9.42;89.27;96063.03;4979538;28;20180;-77
2022/04/30 01:57:25;;;;;;;17.90;13.77;;;;;;;9.41;89.11;96063.16;4979618;28;20271;-78
2022/04/30 01:59:51;;;;;;;18.73;14.37;;;;;;;9.44;89.27;96066.31;4995848;28;20199;-77
2022/04/30 02:02:19;;;;;;;19.43;14.97;;;;;;;9.44;89.45;96060.31;4995440;28;20172;-77
2022/04/30 02:04:44;;;;;;;18.60;15.57;;;;;;;9.43;89.89;96067.25;4979863;28;20206;-77
2022/04/30 02:07:10;;;;;;;17.83;15.37;;;;;;;9.50;90.04;96065.00;4995637;28;20176;-77
2022/04/30 02:09:36;;;;;;;21.30;15.43;;;;;;;9.34;90.97;96057.66;4979376;28;20628;-78
2022/04/30 02:12:01;;;;;;;19.37;14.80;;;;;;;9.38;90.67;96051.28;4978837;28;20294;-78
2022/04/30 02:14:28;;;;;;;20.70;16.60;;;;;;;9.26;91.97;96053.13;4978960;28;20176;-78
2022/04/30 02:16:53;;;;;;;21.17;16.43;;;;;;;9.31;92.50;96056.16;4978315;28;20202;-78
2022/04/30 02:19:20;;;;;;;24.97;17.13;;;;;;;9.33;92.56;96054.25;4996625;28;20692;-78
2022/04/30 02:21:47;;;;;;;23.00;16.60;;;;;;;9.32;92.56;96052.63;4994905;28;20584;-78
2022/04/30 02:24:15;;;;;;;19.53;17.30;;;;;;;9.32;92.70;96047.44;4995201;28;20187;-77
2022/04/30 02:26:42;;;;;;;24.27;18.27;;;;;;;9.29;92.94;96052.88;4978681;28;20274;-78
2022/04/30 02:29:08;;;;;;;24.97;18.40;;;;;;;9.28;93.09;96045.25;4994785;28;20223;-77
2022/04/30 02:31:34;;;;;;;22.23;16.43;;;;;;;9.32;92.72;96051.78;4978226;28;20689;-77
2022/04/30 02:33:59;;;;;;;25.40;16.93;;;;;;;9.32;92.43;96050.03;4979136;28;20179;-77
2022/04/30 02:36:29;;;;;;;20.03;16.17;;;;;;;9.37;92.54;96049.66;4962720;28;20179;-78
2022/04/30 02:38:55;;;;;;;22.93;17.40;;;;;;;9.28;93.68;96042.66;4994820;28;20191;-78
2022/04/30 02:41:21;;;;;;;26.03;18.13;;;;;;;9.16;95.18;96049.66;4977958;28;20214;-78
2022/04/30 02:43:51;;;;;;;30.87;19.73;;;;;;;9.15;95.62;96044.59;4994180;28;20655;-77
2022/04/30 02:46:20;;;;;;;27.87;21.30;;;;;;;9.13;96.87;96036.13;4978224;28;20632;-78
2022/04/30 02:48:45;;;;;;;26.73;21.23;;;;;;;9.19;97.17;96040.78;4978155;28;20582;-77
2022/04/30 02:51:11;;;;;;;33.27;21.77;;;;;;;9.15;97.93;96044.59;4977882;28;20258;-77
2022/04/30 02:53:37;;;;;;;32.90;23.17;;;;;;;9.15;98.64;96039.41;4978008;28;20180;-77
2022/04/30 02:56:04;;;;;;;31.47;23.37;;;;;;;9.09;98.85;96040.72;4994256;28;20251;-78
2022/04/30 03:01:13;;;;;;;35.27;25.07;;;;;;;9.08;100.00;96042.50;4993763;28;20283;-78
2022/04/30 03:03:38;;;;;;;38.00;26.53;;;;;;;9.06;100.00;96047.00;4978295;28;20184;-78
2022/04/30 03:06:05;;;;;;;42.67;29.37;;;;;;;9.05;100.00;96047.94;4978402;28;20184;-78
2022/04/30 03:08:32;;;;;;;42.10;28.57;;;;;;;9.01;100.00;96037.94;4994183;28;20199;-78
2022/04/30 03:10:58;;;;;;;45.37;30.93;;;;;;;8.94;100.00;96042.00;4977674;28;20184;-78
2022/04/30 03:13:24;;;;;;;45.50;31.27;;;;;;;8.92;100.00;96047.31;4977219;28;20226;-78
2022/04/30 03:15:51;;;;;;;43.77;30.50;;;;;;;8.94;100.00;96044.59;4979974;28;20275;-77
2022/04/30 03:23:32;;;;;;;45.27;29.47;;;;;;;8.97;100.00;96054.69;4994207;28;20180;-78
2022/04/30 03:25:57;;;;;;;39.87;29.70;;;;;;;8.99;100.00;96060.56;4993860;28;20592;-78
2022/04/30 03:28:23;;;;;;;43.93;30.17;;;;;;;9.00;100.00;96060.44;4977045;28;20211;-78
2022/04/30 03:30:48;;;;;;;43.80;31.27;;;;;;;9.02;100.00;96070.69;4977455;28;20191;-77
2022/04/30 03:33:14;;;;;;;44.60;30.93;;;;;;;9.00;100.00;96062.22;4992897;28;20243;-78
2022/04/30 03:35:40;;;;;;;43.47;31.07;;;;;;;8.92;100.00;96062.00;4977376;28;20188;-78
2022/04/30 03:38:09;;;;;;;47.33;31.97;;;;;;;8.90;100.00;96061.31;4976740;28;20283;-78
2022/04/30 03:40:35;;;;;;;45.63;31.63;;;;;;;8.85;100.00;96055.72;4977149;28;20188;-78
2022/04/30 03:43:01;;;;;;;56.93;33.73;;;;;;;8.86;100.00;96054.75;4976403;28;20628;-77
2022/04/30 03:45:27;;;;;;;52.13;36.50;;;;;;;8.81;100.00;96055.13;4993660;28;20255;-78
2022/04/30 03:47:52;;;;;;;50.73;35.03;;;;;;;8.72;100.00;96056.69;4992939;28;20609;-76
2022/04/30 03:50:17;;;;;;;44.93;31.97;;;;;;;8.76;100.00;96047.75;4976704;28;20175;-77
2022/04/30 03:52:42;;;;;;;47.10;32.77;;;;;;;8.74;100.00;96051.38;4993693;28;20208;-78
2022/04/30 03:55:09;;;;;;;48.90;33.77;;;;;;;8.72;100.00;96050.69;4993408;28;20179;-78
2022/04/30 03:57:34;;;;;;;45.80;32.47;;;;;;;8.80;100.00;96040.53;4994323;28;20176;-77
2022/04/30 04:00:00;;;;;;;48.13;33.27;;;;;;;8.75;100.00;96048.69;4992989;28;20211;-77
2022/04/30 04:02:25;;;;;;;51.17;33.63;;;;;;;8.57;100.00;96042.41;4993623;28;20172;-77
2022/04/30 04:04:52;;;;;;;48.07;33.93;;;;;;;8.49;100.00;96039.59;4976729;28;20550;-77
2022/04/30 04:07:17;;;;;;;48.77;32.83;;;;;;;8.48;100.00;96037.94;4993002;28;20188;-77
2022/04/30 04:09:43;;;;;;;50.60;35.37;;;;;;;8.43;100.00;96040.91;4976824;28;20199;-78
2022/04/30 04:12:09;;;;;;;52.43;35.37;;;;;;;8.56;100.00;96045.09;4993666;28;20216;-77
2022/04/30 04:20:04;;;;;;;52.87;34.53;;;;;;;8.49;100.00;96048.19;4993323;28;20211;-77
2022/04/30 04:22:29;;;;;;;52.33;35.73;;;;;;;8.40;100.00;96043.75;4976162;28;20180;-78
2022/04/30 04:27:38;;;;;;;53.03;35.43;;;;;;;8.55;100.00;96056.38;4992941;28;20671;-77
2022/04/30 04:30:04;;;;;;;56.60;37.27;;;;;;;8.61;100.00;96055.91;4976169;28;20208;-77
2022/04/30 04:32:29;;;;;;;49.93;35.33;;;;;;;8.56;100.00;96064.03;4976004;28;20306;-78
2022/04/30 04:34:55;;;;;;;55.63;35.27;;;;;;;8.62;100.00;96062.72;4976704;28;20722;-76
2022/04/30 04:37:20;;;;;;;48.83;33.17;;;;;;;8.50;100.00;96067.94;4992421;28;20550;-76
2022/04/30 04:39:45;;;;;;;51.00;33.13;;;;;;;8.56;100.00;96058.84;4975508;28;20204;-77
2022/04/30 04:42:11;;;;;;;49.47;32.13;;;;;;;8.48;100.00;96056.91;4991523;28;20215;-77
2022/04/30 04:44:36;;;;;;;46.60;32.50;;;;;;;8.64;100.00;96063.41;4992399;28;20215;-78
2022/04/30 04:47:02;;;;;;;45.17;32.17;;;;;;;8.55;100.00;96067.56;4992431;28;20259;-78
2022/04/30 04:49:27;;;;;;;43.53;31.10;;;;;;;8.54;100.00;96060.75;4992433;28;20199;-77
2022/04/30 04:51:54;;;;;;;48.27;34.37;;;;;;;8.46;100.00;96068.31;4975429;28;20207;-77
2022/04/30 04:54:19;;;;;;;46.00;33.87;;;;;;;8.46;100.00;96069.13;4991914;28;20180;-78
2022/04/30 04:56:44;;;;;;;47.40;35.47;;;;;;;8.46;100.00;96068.31;4992948;28;20218;-78
2022/04/30 04:59:10;;;;;;;48.40;33.97;;;;;;;8.50;100.00;96060.19;4976601;28;20229;-79
2022/04/30 05:01:36;;;;;;;45.30;32.43;;;;;;;8.52;100.00;96070.41;4976254;28;20184;-77
2022/04/30 05:04:02;;;;;;;46.63;32.43;;;;;;;8.52;100.00;96065.22;4975771;28;20176;-78
2022/04/30 05:06:27;;;;;;;44.80;32.13;;;;;;;8.54;100.00;96071.09;4993819;28;20180;-78
2022/04/30 05:08:53;;;;;;;46.17;32.77;;;;;;;8.64;100.00;96072.00;4976608;28;20306;-79
2022/04/30 05:11:18;;;;;;;44.10;33.67;;;;;;;8.54;100.00;96075.47;4976385;28;20187;-78
2022/04/30 05:13:44;;;;;;;47.23;31.47;;;;;;;8.62;100.00;96073.09;4976880;28;20706;-78
2022/04/30 05:16:09;;;;;;;39.80;30.27;;;;;;;8.57;100.00;96076.06;4973389;28;20640;-77
2022/04/30 05:18:34;;;;;;;39.03;29.10;;;;;;;8.58;100.00;96077.69;4993254;28;20262;-78
2022/04/30 05:20:59;;;;;;;44.13;30.30;;;;;;;8.62;100.00;96083.44;4982309;28;20180;-78
2022/04/30 05:23:25;;;;;;;40.37;29.33;;;;;;;8.65;100.00;96078.81;4984151;28;20186;-78
2022/04/30 05:25:50;;;;;;;39.47;29.87;;;;;;;8.67;100.00;96079.56;4976138;28;20184;-79
2022/04/30 05:28:16;;;;;;;44.03;30.77;;;;;;;8.61;100.00;96086.97;4977031;28;20200;-79
2022/04/30 05:30:41;;;;;;;43.50;31.27;;;;;;;8.56;100.00;96083.91;4994470;28;20172;-79
2022/04/30 05:33:06;;;;;;;41.20;29.90;;;;;;;8.63;100.00;96087.66;4960111;28;20226;-78
2022/04/30 05:35:32;;;;;;;39.13;29.23;;;;;;;8.57;100.00;96083.81;4976497;28;20176;-79
2022/04/30 05:37:57;;;;;;;41.67;28.43;;;;;;;8.68;100.00;96085.53;4976013;28;20226;-78
2022/04/30 05:40:22;;;;;;;39.67;29.77;;;;;;;8.64;100.00;96082.38;4978198;28;20180;-79
2022/04/30 05:42:48;;;;;;;41.73;30.80;;;;;;;8.68;100.00;96088.97;4961571;28;20176;-79
2022/04/30 05:45:13;;;;;;;37.60;28.30;;;;;;;8.56;100.00;96091.69;4976049;28;20194;-80
2022/04/30 05:47:38;;;;;;;38.30;29.30;;;;;;;8.49;100.00;96091.38;4959153;28;20184;-77
2022/04/30 05:50:08;;;;;;;38.17;28.80;;;;;;;8.51;100.00;96095.47;4974544;28;20203;-78
2022/04/30 05:52:34;;;;;;;38.33;29.03;;;;;;;8.60;100.00;96091.34;4976480;28;20204;-80
2022/04/30 05:55:03;;;;;;;38.57;28.70;;;;;;;8.64;100.00;96091.91;4976076;28;20269;-80
2022/04/30 05:57:29;;;;;;;44.33;31.03;;;;;;;8.59;100.00;96100.03;4977980;28;20203;-79
2022/04/30 05:59:55;;;;;;;42.13;29.83;;;;;;;8.65;100.00;96096.94;4977767;28;20196;-78
2022/04/30 06:02:21;;;;;;;41.97;31.70;;;;;;;8.61;100.00;96099.91;4977267;28;20172;-79
2022/04/30 06:04:46;;;;;;;37.13;29.70;;;;;;;8.64;100.00;96104.84;4995509;28;20179;-80
2022/04/30 06:07:12;;;;;;;38.53;27.90;;;;;;;8.66;100.00;96102.97;4961799;28;20703;-80
2022/04/30 06:09:37;;;;;;;37.00;27.33;;;;;;;8.64;100.00;96097.91;4961271;28;20199;-79
2022/04/30 06:12:03;;;;;;;31.27;25.20;;;;;;;8.67;100.00;96097.69;4977083;28;20254;-80
2022/04/30 06:14:28;;;;;;;33.43;26.57;;;;;;;8.56;100.00;96100.28;4977375;28;20843;-79
2022/04/30 06:16:55;;;;;;;35.03;27.53;;;;;;;8.64;100.00;96104.84;4976491;28;20560;-79
2022/04/30 06:19:21;;;;;;;31.77;24.50;;;;;;;8.67;100.00;96102.84;4961166;28;20210;-79
2022/04/30 06:21:48;;;;;;;33.80;24.10;;;;;;;8.66;100.00;96105.56;4976632;28;20172;-80
2022/04/30 06:24:13;;;;;;;27.50;22.63;;;;;;;8.63;100.00;96109.19;4961088;28;20195;-79
2022/04/30 06:26:39;;;;;;;27.37;21.73;;;;;;;8.67;100.00;96113.22;4976926;28;20180;-79
2022/04/30 06:29:04;;;;;;;24.40;19.73;;;;;;;8.64;100.00;96105.66;4975503;28;20207;-81
2022/04/30 06:31:30;;;;;;;25.47;20.70;;;;;;;8.64;100.00;96104.84;4975530;28;20335;-80
2022/04/30 06:33:56;;;;;;;27.23;22.20;;;;;;;8.69;100.00;96105.31;4977950;28;20663;-80
2022/04/30 06:36:22;;;;;;;22.10;19.63;;;;;;;8.74;100.00;96114.34;4978560;28;20222;-79
2022/04/30 06:38:48;;;;;;;25.60;21.13;;;;;;;8.71;100.00;96104.25;4979523;28;20250;-79
2022/04/30 06:41:13;;;;;;;24.33;19.87;;;;;;;8.69;100.00;96119.09;5010983;28;20527;-80
2022/04/30 06:43:38;;;;;;;24.47;20.23;;;;;;;8.79;100.00;96116.56;4995551;28;20183;-79
2022/04/30 06:46:05;;;;;;;28.13;20.43;;;;;;;8.77;100.00;96114.13;4976308;28;20215;-80
2022/04/30 06:48:31;;;;;;;23.87;19.97;;;;;;;8.78;100.00;96117.53;4983833;28;20204;-80
2022/04/30 06:50:56;;;;;;;24.43;20.47;;;;;;;8.74;100.00;96114.34;4959239;28;20203;-80
2022/04/30 06:58:55;;;;;;;25.53;21.13;;;;;;;8.76;100.00;96122.00;4979418;28;20580;-79
2022/04/30 07:01:37;;;;;;;26.83;20.37;;;;;;;8.81;100.00;96125.03;4975829;28;20187;-77
2022/04/30 07:04:05;;;;;;;28.53;20.30;;;;;;;8.83;100.00;96124.91;4962281;28;20198;-79
2022/04/30 07:06:34;;;;;;;24.50;20.47;;;;;;;8.67;100.00;96123.56;5007820;28;20259;-84
2022/04/30 07:09:01;;;;;;;24.13;19.77;;;;;;;8.66;100.00;96121.94;5004483;28;20594;-83
2022/04/30 07:11:27;;;;;;;25.27;20.07;;;;;;;8.54;100.00;96116.88;4961055;28;20226;-79
2022/04/30 07:13:53;;;;;;;24.97;19.87;;;;;;;8.78;100.00;96120.13;4977380;28;20208;-80
2022/04/30 07:16:18;;;;;;;27.03;20.03;;;;;;;8.43;100.00;96117.72;4977379;28;20215;-80
2022/04/30 07:18:43;;;;;;;26.67;20.73;;;;;;;8.50;100.00;96116.31;4961922;28;20465;-79
2022/04/30 07:21:09;;;;;;;26.40;20.87;;;;;;;8.61;100.00;96118.88;4978454;28;20180;-81
2022/04/30 07:23:34;;;;;;;27.00;20.67;;;;;;;8.64;100.00;96118.59;4965342;28;20175;-81
2022/04/30 07:25:59;;;;;;;27.07;20.73;;;;;;;8.50;100.00;96126.66;4981410;28;20218;-81
2022/04/30 07:28:26;;;;;;;27.97;20.97;;;;;;;8.46;100.00;96131.25;4965476;28;20680;-81
2022/04/30 07:30:51;;;;;;;26.13;21.27;;;;;;;8.36;100.00;96127.72;4999524;28;20176;-81
2022/04/30 07:33:17;;;;;;;29.43;21.57;;;;;;;8.29;100.00;96131.69;4965050;28;20219;-80
2022/04/30 07:35:42;;;;;;;30.13;23.93;;;;;;;8.49;100.00;96130.19;4964462;28;20575;-81
2022/04/30 07:38:07;;;;;;;29.10;22.77;;;;;;;8.60;100.00;96132.75;4981417;28;20281;-81
2022/04/30 07:40:35;;;;;;;28.63;21.87;;;;;;;8.42;100.00;96136.78;4965485;28;20203;-81
2022/04/30 07:43:02;;;;;;;27.03;22.03;;;;;;;8.44;100.00;96140.06;4981089;28;20219;-81
2022/04/30 07:45:28;;;;;;;26.40;20.47;;;;;;;8.64;100.00;96138.50;4965863;28;20210;-80
2022/04/30 07:47:54;;;;;;;26.57;19.93;;;;;;;8.64;100.00;96134.16;4965690;28;20727;-81
2022/04/30 07:50:25;;;;;;;21.80;18.37;;;;;;;8.86;100.00;96135.03;4980952;28;20184;-81
2022/04/30 07:52:50;;;;;;;26.03;19.97;;;;;;;9.05;100.00;96137.78;4964516;28;20208;-81
2022/04/30 07:55:15;;;;;;;25.77;20.13;;;;;;;8.93;100.00;96133.63;4964990;28;20191;-81
2022/04/30 07:57:41;;;;;;;24.00;18.87;;;;;;;9.21;100.00;96132.19;4965022;28;20176;-82
2022/04/30 08:00:07;;;;;;;24.27;19.33;;;;;;;9.25;100.00;96139.59;4965475;28;20183;-81
2022/04/30 08:02:32;;;;;;;23.80;17.67;;;;;;;9.12;100.00;96144.13;4964689;28;20176;-81
2022/04/30 08:04:58;;;;;;;22.83;18.80;;;;;;;9.57;100.00;96138.72;4964104;28;20671;-82
2022/04/30 08:07:23;;;;;;;21.77;17.63;;;;;;;9.63;100.00;96130.44;4996854;28;20191;-82
2022/04/30 08:09:49;;;;;;;18.23;15.50;;;;;;;9.75;100.00;96136.38;4980357;28;20199;-81
2022/04/30 08:12:14;;;;;;;19.00;15.47;;;;;;;10.06;100.00;96147.59;4963677;28;20216;-80
2022/04/30 08:14:39;;;;;;;32.20;27.43;;;;;;;10.09;99.73;96142.16;4980879;28;20204;-81
2022/04/30 08:17:05;;;;;;;18.80;16.10;;;;;;;10.25;98.81;96144.28;4998472;28;20607;-82
2022/04/30 08:19:30;;;;;;;13.87;12.37;;;;;;;10.30;97.58;96148.13;4964270;28;20246;-80
2022/04/30 08:21:56;;;;;;;14.17;12.63;;;;;;;10.15;98.30;96141.59;4980674;28;20826;-80
2022/04/30 08:24:22;;;;;;;15.13;13.53;;;;;;;9.99;97.82;96146.47;4964630;28;20274;-81
2022/04/30 08:26:49;;;;;;;16.20;13.13;;;;;;;10.09;98.15;96150.75;4980181;28;20192;-81
2022/04/30 08:29:14;;;;;;;15.10;13.57;;;;;;;10.31;98.15;96147.19;4963578;28;20199;-81
2022/04/30 08:31:40;;;;;;;15.40;13.80;;;;;;;10.40;97.59;96148.16;4963324;28;20219;-81
2022/04/30 08:34:05;;;;;;;15.33;13.50;;;;;;;9.98;98.68;96150.00;4962867;28;20551;-81
2022/04/30 08:36:30;;;;;;;16.23;14.47;;;;;;;9.68;100.00;96146.44;4978685;28;20223;-82
2022/04/30 08:38:56;;;;;;;17.37;15.27;;;;;;;9.92;100.00;96153.94;4980318;28;20230;-81
2022/04/30 08:41:21;;;;;;;21.00;18.70;;;;;;;10.07;100.00;96146.63;4979285;28;20556;-81
2022/04/30 08:43:48;;;;;;;22.43;19.73;;;;;;;10.07;100.00;96149.22;4978943;28;20180;-81
2022/04/30 08:46:14;;;;;;;18.83;16.70;;;;;;;10.04;100.00;96147.72;4979957;28;20211;-82
2022/04/30 08:48:44;;;;;;;18.93;15.53;;;;;;;10.13;100.00;96146.13;4961698;28;20215;-81
2022/04/30 08:51:10;;;;;;;14.57;12.07;;;;;;;9.91;97.82;96142.75;4978613;28;20182;-80
2022/04/30 08:53:35;;;;;;;13.13;11.77;;;;;;;10.37;96.62;96144.06;4962280;28;20766;-80
2022/04/30 08:56:00;;;;;;;14.03;12.53;;;;;;;10.81;96.62;96149.78;4977644;28;20180;-81
2022/04/30 08:58:26;;;;;;;16.10;14.40;;;;;;;10.97;95.48;96150.09;4978366;28;20200;-80
2022/04/30 09:00:51;;;;;;;16.37;12.93;;;;;;;10.95;93.64;96144.16;4996005;28;20578;-80
2022/04/30 09:03:18;;;;;;;27.63;20.40;;;;;;;11.27;92.64;96153.50;4961930;28;20180;-81
2022/04/30 09:05:44;;;;;;;45.80;32.07;;;;;;;10.91;94.18;96153.22;4978413;28;20176;-81
2022/04/30 09:08:10;;;;;;;20.67;16.53;;;;;;;10.77;95.88;96151.81;4978102;28;20200;-81
2022/04/30 09:10:40;;;;;;;17.00;14.20;;;;;;;10.61;97.83;96146.31;4978097;28;20180;-81
2022/04/30 09:13:14;;;;;;;73.03;46.47;;;;;;;10.63;96.90;96151.38;4961850;28;20358;-81
2022/04/30 09:15:41;;;;;;;55.93;44.77;;;;;;;10.61;97.74;96145.50;4961821;28;20183;-80
2022/04/30 09:18:08;;;;;;;86.73;77.97;;;;;;;10.74;95.75;96148.66;4961719;28;20210;-81
2022/04/30 09:20:48;;;;;;;28.37;25.67;;;;;;;11.01;94.83;96145.41;4978151;28;20180;-80
2022/04/30 09:23:27;;;;;;;47.30;42.40;;;;;;;11.06;94.07;96145.84;4995156;28;20175;-81
2022/04/30 09:25:55;;;;;;;25.90;23.13;;;;;;;11.17;93.55;96147.50;4962619;28;20187;-80
2022/04/30 09:28:29;;;;;;;32.27;29.07;;;;;;;11.02;94.35;96147.88;4977718;28;20199;-81
2022/04/30 09:31:11;;;;;;;39.17;35.40;;;;;;;11.18;94.05;96149.94;4961545;28;20558;-81
2022/04/30 09:33:38;;;;;;;61.23;55.03;;;;;;;11.12;93.74;96157.47;4961452;28;20215;-80
2022/04/30 09:38:53;;;;;;;28.67;25.87;;;;;;;10.53;95.50;96150.53;4979935;28;20222;-81
2022/04/30 09:41:26;;;;;;;25.37;22.90;;;;;;;10.68;94.84;96146.59;4976298;28;20176;-81
2022/04/30 09:44:06;;;;;;;19.10;17.20;;;;;;;10.70;94.92;96148.13;4977117;28;20168;-81
2022/04/30 09:46:36;;;;;;;19.43;17.53;;;;;;;10.70;95.99;96149.91;4961427;28;20177;-81
2022/04/30 09:54:32;;;;;;;12.23;10.93;;;;;;;10.47;96.58;96146.69;4978403;28;20242;-77
2022/04/30 09:57:00;;;;;;;273.33;241.13;;;;;;;10.39;96.64;96146.53;4959774;28;20656;-78
2022/04/30 09:59:27;;;;;;;277.20;221.70;;;;;;;10.17;97.65;96148.34;4975317;28;20284;-78
2022/04/30 10:01:53;;;;;;;125.70;102.30;;;;;;;10.03;98.59;96142.66;4975164;28;20663;-79
2022/04/30 10:04:18;;;;;;;87.63;75.23;;;;;;;10.07;99.75;96146.63;4974410;28;20226;-79
2022/04/30 10:06:49;;;;;;;53.10;47.87;;;;;;;9.83;100.00;96142.56;4960068;28;20259;-79
2022/04/30 10:09:16;;;;;;;21.40;18.73;;;;;;;9.88;100.00;96143.00;4978592;28;20195;-78
2022/04/30 10:11:47;;;;;;;17.63;15.83;;;;;;;10.07;99.04;96142.28;4977716;28;20199;-78
2022/04/30 10:14:38;;;;;;;14.13;12.03;;;;;;;10.28;99.11;96144.84;4962120;28;20316;-78
2022/04/30 10:17:13;;;;;;;14.83;12.27;;;;;;;10.22;98.33;96147.97;4976345;28;20180;-78
2022/04/30 10:19:39;;;;;;;11.03;9.93;;;;;;;10.13;97.96;96146.13;4962619;28;20203;-79
2022/04/30 10:22:10;;;;;;;12.17;10.87;;;;;;;10.17;98.33;96142.31;4977434;28;20616;-80
2022/04/30 10:24:43;;;;;;;13.87;12.23;;;;;;;10.53;98.89;96148.75;4979452;28;20500;-81
2022/04/30 10:27:09;;;;;;;13.10;11.80;;;;;;;10.61;96.54;96146.31;4979904;28;20202;-81
2022/04/30 10:29:34;;;;;;;12.70;10.83;;;;;;;10.62;93.67;96149.75;4979753;28;20686;-81
2022/04/30 10:31:59;;;;;;;12.77;11.47;;;;;;;10.64;94.25;96145.22;4962730;28;20286;-79
2022/04/30 10:34:31;;;;;;;13.40;11.97;;;;;;;10.87;94.77;96141.47;4963403;28;20188;-81
2022/04/30 10:37:01;;;;;;;13.40;11.30;;;;;;;11.57;91.12;96140.38;4979115;28;20556;-78
2022/04/30 10:39:26;;;;;;;12.43;11.23;;;;;;;12.21;88.53;96148.44;4978336;28;20196;-80
2022/04/30 10:41:54;;;;;;;10.27;9.27;;;;;;;12.06;85.41;96137.66;4978763;28;20172;-80
2022/04/30 10:44:32;;;;;;;13.70;12.30;;;;;;;12.49;88.52;96147.50;4965153;28;20560;-81
2022/04/30 10:47:12;;;;;;;12.53;11.03;;;;;;;12.56;85.83;96147.75;4980814;28;20207;-80
2022/04/30 10:49:38;;;;;;;11.43;10.33;;;;;;;12.66;83.57;96148.50;4978664;28;20580;-80
2022/04/30 10:52:03;;;;;;;11.83;10.63;;;;;;;12.86;83.63;96147.41;4962559;28;20207;-80
2022/04/30 10:54:29;;;;;;;11.43;10.23;;;;;;;13.09;81.99;96149.63;4980063;28;20180;-79
2022/04/30 10:57:01;;;;;;;11.13;10.00;;;;;;;13.04;80.65;96147.44;4979347;28;20636;-80
2022/04/30 10:59:26;;;;;;;10.37;9.40;;;;;;;13.22;79.70;96145.69;4978950;28;20199;-80
2022/04/30 11:01:51;;;;;;;10.27;9.33;;;;;;;13.27;77.22;96153.06;4962040;28;20525;-80
2022/04/30 11:04:18;;;;;;;10.13;8.87;;;;;;;13.26;77.50;96147.03;4962692;28;20179;-81
2022/04/30 11:06:44;;;;;;;9.83;8.93;;;;;;;12.70;79.99;96145.44;4962876;28;20184;-80
2022/04/30 11:09:09;;;;;;;10.90;9.90;;;;;;;12.94;77.24;96141.47;4978239;28;20208;-80
2022/04/30 11:11:36;;;;;;;10.83;9.80;;;;;;;13.20;79.08;96131.16;4961680;28;20184;-82
2022/04/30 11:14:04;;;;;;;10.50;9.50;;;;;;;13.25;77.66;96149.78;4979589;28;20578;-80
2022/04/30 11:16:31;;;;;;;10.33;9.30;;;;;;;12.98;77.84;96133.19;4962583;28;20267;-80
2022/04/30 11:19:09;;;;;;;11.07;9.97;;;;;;;12.73;77.69;96134.75;4977649;28;20275;-80
2022/04/30 11:21:42;;;;;;;11.23;10.20;;;;;;;12.22;80.93;96129.25;4961564;28;20685;-80
2022/04/30 11:24:09;;;;;;;11.70;10.50;;;;;;;12.51;78.80;96129.09;4978153;28;20234;-80
2022/04/30 11:26:42;;;;;;;10.90;9.87;;;;;;;12.86;77.88;96123.13;4961805;28;20182;-81
2022/04/30 11:29:12;;;;;;;11.07;9.93;;;;;;;12.68;76.93;96121.31;4978524;28;20649;-80
2022/04/30 11:31:38;;;;;;;10.57;9.57;;;;;;;12.85;78.68;96121.50;4961413;28;20187;-80
2022/04/30 11:34:10;;;;;;;12.63;11.33;;;;;;;12.72;78.82;96122.69;4977690;28;20315;-80
2022/04/30 11:36:40;;;;;;;10.13;9.23;;;;;;;12.53;77.87;96121.97;4977934;28;20175;-80
2022/04/30 11:39:06;;;;;;;12.07;10.90;;;;;;;12.27;79.07;96129.63;4976477;28;20200;-80
2022/04/30 11:41:40;;;;;;;12.73;11.43;;;;;;;12.44;80.72;96124.47;4976871;28;20258;-80
2022/04/30 11:44:08;;;;;;;12.53;11.27;;;;;;;11.57;82.91;96127.34;4977454;28;20233;-80
2022/04/30 11:46:36;;;;;;;12.37;11.17;;;;;;;11.74;81.76;96119.78;4977640;28;20180;-80
2022/04/30 11:49:10;;;;;;;13.23;12.00;;;;;;;11.71;82.17;96125.25;4977729;28;20207;-80
2022/04/30 11:51:36;;;;;;;13.57;12.27;;;;;;;11.66;81.66;96122.25;4961134;28;20631;-80
2022/04/30 11:54:02;;;;;;;13.23;11.93;;;;;;;12.40;80.42;96127.53;4977657;28;20180;-80